sensor_id;sensor_type;location;lat;lon;timestamp;P1;durP1;ratioP1;P2;durP2;ratioP2
28605;SDS011;46498;49.968;7.754;2022-08-21T00:04:42;7.37;;;2.75;;
28605;SDS011;46498;49.968;7.754;2022-08-21T00:09:58;8.43;;;2.50;;
28605;SDS011;46498;49.968;7.754;2022-08-21T00:14:59;13.23;;;2.85;;
28605;SDS011;46498;49.968;7.754;2022-08-21T00:20:06;4.87;;;2.08;;
28605;SDS011;46498;49.968;7.754;2022-08-21T00:25:09;7.28;;;2.37;;
28605;SDS011;46498;49.968;7.754;2022-08-21T00:30:13;13.98;;;2.22;;
28605;SDS011;46498;49.968;7.754;2022-08-21T00:35:25;6.40;;;2.20;;
28605;SDS011;46498;49.968;7.754;2022-08-21T00:40:31;6.65;;;2.20;;
28605;SDS011;46498;49.968;7.754;2022-08-21T00:45:37;5.97;;;2.08;;
28605;SDS011;46498;49.968;7.754;2022-08-21T00:50:40;6.75;;;2.37;;
28605;SDS011;46498;49.968;7.754;2022-08-21T00:55:51;10.43;;;2.65;;
28605;SDS011;46498;49.968;7.754;2022-08-21T01:00:56;6.37;;;2.58;;
28605;SDS011;46498;49.968;7.754;2022-08-21T01:06:00;11.12;;;2.75;;
28605;SDS011;46498;49.968;7.754;2022-08-21T01:11:05;9.73;;;2.50;;
28605;SDS011;46498;49.968;7.754;2022-08-21T01:16:08;5.82;;;2.22;;
28605;SDS011;46498;49.968;7.754;2022-08-21T01:21:12;8.65;;;2.72;;
28605;SDS011;46498;49.968;7.754;2022-08-21T01:26:16;8.23;;;2.20;;
28605;SDS011;46498;49.968;7.754;2022-08-21T01:31:21;9.70;;;2.78;;
28605;SDS011;46498;49.968;7.754;2022-08-21T01:36:26;11.07;;;2.85;;
28605;SDS011;46498;49.968;7.754;2022-08-21T01:41:28;8.02;;;2.80;;
28605;SDS011;46498;49.968;7.754;2022-08-21T01:46:38;9.95;;;3.12;;
28605;SDS011;46498;49.968;7.754;2022-08-21T01:51:39;12.80;;;3.05;;
28605;SDS011;46498;49.968;7.754;2022-08-21T01:56:42;10.15;;;3.33;;
28605;SDS011;46498;49.968;7.754;2022-08-21T02:01:48;13.65;;;3.37;;
28605;SDS011;46498;49.968;7.754;2022-08-21T02:06:57;9.45;;;3.55;;
28605;SDS011;46498;49.968;7.754;2022-08-21T02:12:02;7.45;;;3.15;;
28605;SDS011;46498;49.968;7.754;2022-08-21T02:17:04;8.20;;;2.92;;
28605;SDS011;46498;49.968;7.754;2022-08-21T02:22:10;8.05;;;3.10;;
28605;SDS011;46498;49.968;7.754;2022-08-21T02:27:11;9.32;;;3.25;;
28605;SDS011;46498;49.968;7.754;2022-08-21T02:32:12;7.78;;;3.50;;
28605;SDS011;46498;49.968;7.754;2022-08-21T02:37:16;11.55;;;3.62;;
28605;SDS011;46498;49.968;7.754;2022-08-21T02:42:17;7.78;;;3.40;;
28605;SDS011;46498;49.968;7.754;2022-08-21T02:47:18;8.73;;;3.12;;
28605;SDS011;46498;49.968;7.754;2022-08-21T02:52:19;10.77;;;3.87;;
28605;SDS011;46498;49.968;7.754;2022-08-21T02:57:22;9.90;;;3.47;;
28605;SDS011;46498;49.968;7.754;2022-08-21T03:02:26;12.23;;;4.35;;
28605;SDS011;46498;49.968;7.754;2022-08-21T03:07:27;11.05;;;4.05;;
28605;SDS011;46498;49.968;7.754;2022-08-21T03:12:31;7.18;;;3.37;;
28605;SDS011;46498;49.968;7.754;2022-08-21T03:17:32;9.68;;;3.65;;
28605;SDS011;46498;49.968;7.754;2022-08-21T03:22:34;7.07;;;3.30;;
28605;SDS011;46498;49.968;7.754;2022-08-21T03:27:35;9.88;;;3.50;;
28605;SDS011;46498;49.968;7.754;2022-08-21T03:32:39;12.30;;;3.83;;
28605;SDS011;46498;49.968;7.754;2022-08-21T03:37:41;12.32;;;4.70;;
28605;SDS011;46498;49.968;7.754;2022-08-21T03:42:42;11.40;;;4.10;;
28605;SDS011;46498;49.968;7.754;2022-08-21T03:48:05;9.15;;;3.90;;
28605;SDS011;46498;49.968;7.754;2022-08-21T03:53:08;10.18;;;4.12;;
28605;SDS011;46498;49.968;7.754;2022-08-21T03:58:23;13.85;;;4.93;;
28605;SDS011;46498;49.968;7.754;2022-08-21T04:03:31;14.87;;;5.43;;
28605;SDS011;46498;49.968;7.754;2022-08-21T04:08:33;14.33;;;5.30;;
28605;SDS011;46498;49.968;7.754;2022-08-21T04:13:35;8.82;;;4.70;;
28605;SDS011;46498;49.968;7.754;2022-08-21T04:18:45;15.10;;;5.00;;
28605;SDS011;46498;49.968;7.754;2022-08-21T04:23:46;16.50;;;4.75;;
28605;SDS011;46498;49.968;7.754;2022-08-21T04:28:47;15.88;;;5.40;;
28605;SDS011;46498;49.968;7.754;2022-08-21T04:33:51;14.77;;;5.40;;
28605;SDS011;46498;49.968;7.754;2022-08-21T04:38:57;11.48;;;5.10;;
28605;SDS011;46498;49.968;7.754;2022-08-21T04:44:05;15.15;;;5.35;;
28605;SDS011;46498;49.968;7.754;2022-08-21T04:49:10;9.63;;;4.82;;
28605;SDS011;46498;49.968;7.754;2022-08-21T04:54:19;10.15;;;5.10;;
28605;SDS011;46498;49.968;7.754;2022-08-21T04:59:22;15.27;;;5.45;;
28605;SDS011;46498;49.968;7.754;2022-08-21T05:04:27;16.60;;;5.65;;
28605;SDS011;46498;49.968;7.754;2022-08-21T05:09:33;14.93;;;5.68;;
28605;SDS011;46498;49.968;7.754;2022-08-21T05:14:35;11.10;;;4.82;;
28605;SDS011;46498;49.968;7.754;2022-08-21T05:19:36;14.35;;;5.35;;
28605;SDS011;46498;49.968;7.754;2022-08-21T05:24:39;13.38;;;5.03;;
28605;SDS011;46498;49.968;7.754;2022-08-21T05:29:42;11.77;;;4.97;;
28605;SDS011;46498;49.968;7.754;2022-08-21T05:34:46;9.68;;;5.20;;
28605;SDS011;46498;49.968;7.754;2022-08-21T05:39:56;12.23;;;4.70;;
28605;SDS011;46498;49.968;7.754;2022-08-21T05:45:23;23.27;;;5.32;;
28605;SDS011;46498;49.968;7.754;2022-08-21T05:50:43;13.62;;;5.15;;
28605;SDS011;46498;49.968;7.754;2022-08-21T05:55:47;10.02;;;4.70;;
28605;SDS011;46498;49.968;7.754;2022-08-21T06:00:53;8.95;;;5.12;;
28605;SDS011;46498;49.968;7.754;2022-08-21T06:05:55;14.95;;;5.32;;
28605;SDS011;46498;49.968;7.754;2022-08-21T06:11:00;11.77;;;4.68;;
28605;SDS011;46498;49.968;7.754;2022-08-21T06:16:05;14.00;;;5.10;;
28605;SDS011;46498;49.968;7.754;2022-08-21T06:21:16;17.02;;;5.32;;
28605;SDS011;46498;49.968;7.754;2022-08-21T06:26:19;12.33;;;4.87;;
28605;SDS011;46498;49.968;7.754;2022-08-21T06:31:21;9.38;;;4.03;;
28605;SDS011;46498;49.968;7.754;2022-08-21T06:36:24;10.30;;;4.15;;
28605;SDS011;46498;49.968;7.754;2022-08-21T06:41:25;9.60;;;4.50;;
28605;SDS011;46498;49.968;7.754;2022-08-21T06:46:39;9.52;;;4.55;;
28605;SDS011;46498;49.968;7.754;2022-08-21T06:51:40;9.05;;;3.97;;
28605;SDS011;46498;49.968;7.754;2022-08-21T06:56:41;8.57;;;4.28;;
28605;SDS011;46498;49.968;7.754;2022-08-21T07:01:43;13.38;;;5.60;;
28605;SDS011;46498;49.968;7.754;2022-08-21T07:06:45;12.07;;;5.43;;
28605;SDS011;46498;49.968;7.754;2022-08-21T07:11:49;12.52;;;4.80;;
28605;SDS011;46498;49.968;7.754;2022-08-21T07:16:55;13.55;;;4.97;;
28605;SDS011;46498;49.968;7.754;2022-08-21T07:21:57;12.35;;;4.90;;
28605;SDS011;46498;49.968;7.754;2022-08-21T07:27:00;15.80;;;5.43;;
28605;SDS011;46498;49.968;7.754;2022-08-21T07:32:10;19.37;;;4.80;;
28605;SDS011;46498;49.968;7.754;2022-08-21T07:37:11;9.10;;;4.25;;
28605;SDS011;46498;49.968;7.754;2022-08-21T07:42:12;14.52;;;4.65;;
28605;SDS011;46498;49.968;7.754;2022-08-21T07:47:14;11.70;;;4.05;;
28605;SDS011;46498;49.968;7.754;2022-08-21T07:52:43;9.60;;;3.47;;
28605;SDS011;46498;49.968;7.754;2022-08-21T07:57:45;11.67;;;3.40;;
28605;SDS011;46498;49.968;7.754;2022-08-21T08:02:47;9.35;;;2.97;;
28605;SDS011;46498;49.968;7.754;2022-08-21T08:07:56;15.43;;;2.85;;
28605;SDS011;46498;49.968;7.754;2022-08-21T08:12:57;11.23;;;3.22;;
28605;SDS011;46498;49.968;7.754;2022-08-21T08:17:59;8.52;;;2.97;;
28605;SDS011;46498;49.968;7.754;2022-08-21T08:23:01;9.87;;;3.03;;
28605;SDS011;46498;49.968;7.754;2022-08-21T08:28:03;8.25;;;3.45;;
28605;SDS011;46498;49.968;7.754;2022-08-21T08:33:17;12.27;;;3.75;;
28605;SDS011;46498;49.968;7.754;2022-08-21T08:38:19;10.77;;;3.25;;
28605;SDS011;46498;49.968;7.754;2022-08-21T08:43:25;12.60;;;3.20;;
28605;SDS011;46498;49.968;7.754;2022-08-21T08:48:34;13.65;;;3.50;;
28605;SDS011;46498;49.968;7.754;2022-08-21T08:54:04;8.20;;;2.70;;
28605;SDS011;46498;49.968;7.754;2022-08-21T08:59:27;11.02;;;3.25;;
28605;SDS011;46498;49.968;7.754;2022-08-21T09:04:41;8.05;;;3.05;;
28605;SDS011;46498;49.968;7.754;2022-08-21T09:09:51;12.18;;;2.97;;
28605;SDS011;46498;49.968;7.754;2022-08-21T09:15:20;8.65;;;3.12;;
28605;SDS011;46498;49.968;7.754;2022-08-21T09:20:36;8.85;;;2.80;;
28605;SDS011;46498;49.968;7.754;2022-08-21T09:32:28;7.78;;;2.75;;
28605;SDS011;46498;49.968;7.754;2022-08-21T09:37:52;7.20;;;2.80;;
28605;SDS011;46498;49.968;7.754;2022-08-21T09:43:18;8.18;;;2.33;;
28605;SDS011;46498;49.968;7.754;2022-08-21T09:48:21;11.57;;;3.37;;
28605;SDS011;46498;49.968;7.754;2022-08-21T09:53:27;11.57;;;3.08;;
28605;SDS011;46498;49.968;7.754;2022-08-21T09:58:36;8.95;;;2.87;;
28605;SDS011;46498;49.968;7.754;2022-08-21T10:03:39;7.18;;;2.80;;
28605;SDS011;46498;49.968;7.754;2022-08-21T10:08:40;8.20;;;3.25;;
28605;SDS011;46498;49.968;7.754;2022-08-21T10:22:23;7.67;;;2.50;;
28605;SDS011;46498;49.968;7.754;2022-08-21T10:33:20;6.18;;;2.58;;
28605;SDS011;46498;49.968;7.754;2022-08-21T10:39:19;9.57;;;2.53;;
28605;SDS011;46498;49.968;7.754;2022-08-21T10:44:52;8.77;;;2.85;;
28605;SDS011;46498;49.968;7.754;2022-08-21T10:50:12;6.97;;;2.50;;
28605;SDS011;46498;49.968;7.754;2022-08-21T10:56:31;9.95;;;2.90;;
28605;SDS011;46498;49.968;7.754;2022-08-21T11:01:48;4.45;;;2.10;;
28605;SDS011;46498;49.968;7.754;2022-08-21T11:06:57;9.30;;;2.78;;
28605;SDS011;46498;49.968;7.754;2022-08-21T11:12:44;9.50;;;2.50;;
28605;SDS011;46498;49.968;7.754;2022-08-21T11:38:21;8.32;;;2.65;;
28605;SDS011;46498;49.968;7.754;2022-08-21T11:50:17;7.78;;;2.47;;
28605;SDS011;46498;49.968;7.754;2022-08-21T11:55:43;7.05;;;2.72;;
28605;SDS011;46498;49.968;7.754;2022-08-21T12:00:52;8.48;;;2.75;;
28605;SDS011;46498;49.968;7.754;2022-08-21T12:06:00;6.25;;;2.33;;
28605;SDS011;46498;49.968;7.754;2022-08-21T12:11:07;6.00;;;2.40;;
28605;SDS011;46498;49.968;7.754;2022-08-21T12:16:42;7.22;;;2.25;;
28605;SDS011;46498;49.968;7.754;2022-08-21T12:21:52;7.50;;;2.40;;
28605;SDS011;46498;49.968;7.754;2022-08-21T12:27:14;6.93;;;2.37;;
28605;SDS011;46498;49.968;7.754;2022-08-21T12:32:46;5.60;;;2.20;;
28605;SDS011;46498;49.968;7.754;2022-08-21T12:38:01;7.25;;;2.70;;
28605;SDS011;46498;49.968;7.754;2022-08-21T12:44:56;7.05;;;2.80;;
28605;SDS011;46498;49.968;7.754;2022-08-21T12:50:11;5.57;;;2.53;;
28605;SDS011;46498;49.968;7.754;2022-08-21T12:55:15;4.37;;;2.35;;
28605;SDS011;46498;49.968;7.754;2022-08-21T13:05:35;5.13;;;2.20;;
28605;SDS011;46498;49.968;7.754;2022-08-21T13:10:37;5.12;;;2.05;;
28605;SDS011;46498;49.968;7.754;2022-08-21T13:15:41;4.72;;;1.95;;
28605;SDS011;46498;49.968;7.754;2022-08-21T13:20:48;4.18;;;2.10;;
28605;SDS011;46498;49.968;7.754;2022-08-21T13:25:50;6.20;;;2.47;;
28605;SDS011;46498;49.968;7.754;2022-08-21T13:30:51;5.62;;;2.15;;
28605;SDS011;46498;49.968;7.754;2022-08-21T13:36:05;5.55;;;2.03;;
28605;SDS011;46498;49.968;7.754;2022-08-21T13:41:21;6.07;;;2.15;;
28605;SDS011;46498;49.968;7.754;2022-08-21T13:46:26;6.37;;;1.95;;
28605;SDS011;46498;49.968;7.754;2022-08-21T13:51:31;4.60;;;2.30;;
28605;SDS011;46498;49.968;7.754;2022-08-21T13:56:44;4.32;;;1.85;;
28605;SDS011;46498;49.968;7.754;2022-08-21T14:01:51;5.05;;;2.22;;
28605;SDS011;46498;49.968;7.754;2022-08-21T14:06:59;3.87;;;2.08;;
28605;SDS011;46498;49.968;7.754;2022-08-21T14:17:33;4.12;;;1.80;;
28605;SDS011;46498;49.968;7.754;2022-08-21T14:22:47;4.03;;;2.10;;
28605;SDS011;46498;49.968;7.754;2022-08-21T14:27:53;4.93;;;1.70;;
28605;SDS011;46498;49.968;7.754;2022-08-21T14:33:00;6.37;;;2.00;;
28605;SDS011;46498;49.968;7.754;2022-08-21T14:38:02;3.80;;;1.87;;
28605;SDS011;46498;49.968;7.754;2022-08-21T14:43:11;6.90;;;2.12;;
28605;SDS011;46498;49.968;7.754;2022-08-21T14:48:12;3.78;;;2.00;;
28605;SDS011;46498;49.968;7.754;2022-08-21T14:53:14;5.12;;;2.08;;
28605;SDS011;46498;49.968;7.754;2022-08-21T14:58:15;7.85;;;1.92;;
28605;SDS011;46498;49.968;7.754;2022-08-21T15:03:16;6.17;;;2.00;;
28605;SDS011;46498;49.968;7.754;2022-08-21T15:08:18;4.80;;;2.20;;
28605;SDS011;46498;49.968;7.754;2022-08-21T15:13:19;4.15;;;1.85;;
28605;SDS011;46498;49.968;7.754;2022-08-21T15:18:25;6.62;;;2.67;;
28605;SDS011;46498;49.968;7.754;2022-08-21T15:23:27;5.70;;;1.98;;
28605;SDS011;46498;49.968;7.754;2022-08-21T15:28:28;4.90;;;2.40;;
28605;SDS011;46498;49.968;7.754;2022-08-21T15:33:32;5.60;;;2.05;;
28605;SDS011;46498;49.968;7.754;2022-08-21T15:38:33;3.58;;;2.10;;
28605;SDS011;46498;49.968;7.754;2022-08-21T15:43:50;4.03;;;1.98;;
28605;SDS011;46498;49.968;7.754;2022-08-21T15:48:53;4.25;;;1.83;;
28605;SDS011;46498;49.968;7.754;2022-08-21T15:54:00;4.12;;;1.87;;
28605;SDS011;46498;49.968;7.754;2022-08-21T15:59:08;7.20;;;2.40;;
28605;SDS011;46498;49.968;7.754;2022-08-21T16:04:15;3.17;;;1.85;;
28605;SDS011;46498;49.968;7.754;2022-08-21T16:09:21;11.02;;;2.15;;
28605;SDS011;46498;49.968;7.754;2022-08-21T16:14:23;4.33;;;1.77;;
28605;SDS011;46498;49.968;7.754;2022-08-21T16:19:25;5.18;;;1.60;;
28605;SDS011;46498;49.968;7.754;2022-08-21T16:24:29;3.62;;;1.60;;
28605;SDS011;46498;49.968;7.754;2022-08-21T16:29:30;7.37;;;1.90;;
28605;SDS011;46498;49.968;7.754;2022-08-21T16:34:35;4.70;;;1.62;;
28605;SDS011;46498;49.968;7.754;2022-08-21T16:39:39;3.10;;;1.80;;
28605;SDS011;46498;49.968;7.754;2022-08-21T16:44:41;4.90;;;1.90;;
28605;SDS011;46498;49.968;7.754;2022-08-21T16:49:48;6.25;;;1.90;;
28605;SDS011;46498;49.968;7.754;2022-08-21T16:54:50;3.30;;;1.23;;
28605;SDS011;46498;49.968;7.754;2022-08-21T16:59:51;4.75;;;1.77;;
28605;SDS011;46498;49.968;7.754;2022-08-21T17:04:53;2.23;;;1.27;;
28605;SDS011;46498;49.968;7.754;2022-08-21T17:09:54;4.95;;;1.50;;
28605;SDS011;46498;49.968;7.754;2022-08-21T17:14:56;2.55;;;1.30;;
28605;SDS011;46498;49.968;7.754;2022-08-21T17:20:05;3.60;;;1.62;;
28605;SDS011;46498;49.968;7.754;2022-08-21T17:25:07;4.37;;;1.70;;
28605;SDS011;46498;49.968;7.754;2022-08-21T17:30:09;4.30;;;1.40;;
28605;SDS011;46498;49.968;7.754;2022-08-21T17:35:12;3.62;;;1.55;;
28605;SDS011;46498;49.968;7.754;2022-08-21T17:40:14;3.35;;;1.40;;
28605;SDS011;46498;49.968;7.754;2022-08-21T17:45:17;5.53;;;1.90;;
28605;SDS011;46498;49.968;7.754;2022-08-21T17:50:19;4.40;;;1.80;;
28605;SDS011;46498;49.968;7.754;2022-08-21T17:55:23;6.37;;;2.10;;
28605;SDS011;46498;49.968;7.754;2022-08-21T18:00:24;4.97;;;1.67;;
28605;SDS011;46498;49.968;7.754;2022-08-21T18:05:26;4.40;;;1.60;;
28605;SDS011;46498;49.968;7.754;2022-08-21T18:10:28;9.40;;;1.77;;
28605;SDS011;46498;49.968;7.754;2022-08-21T18:15:29;3.53;;;1.70;;
28605;SDS011;46498;49.968;7.754;2022-08-21T18:20:30;4.80;;;1.48;;
28605;SDS011;46498;49.968;7.754;2022-08-21T18:25:31;4.43;;;1.57;;
28605;SDS011;46498;49.968;7.754;2022-08-21T18:30:35;5.40;;;1.80;;
28605;SDS011;46498;49.968;7.754;2022-08-21T18:35:40;3.87;;;1.60;;
28605;SDS011;46498;49.968;7.754;2022-08-21T18:40:45;3.33;;;1.80;;
28605;SDS011;46498;49.968;7.754;2022-08-21T18:45:55;3.65;;;1.60;;
28605;SDS011;46498;49.968;7.754;2022-08-21T18:50:57;4.07;;;1.90;;
